sensor_id;sensor_type;location;lat;lon;timestamp;P1;durP1;ratioP1;P2;durP2;ratioP2
34373;SDS011;20637;55.770;37.592;2022-09-13T00:00:35;7.82;;;5.88;;
34373;SDS011;20637;55.770;37.592;2022-09-13T00:03:01;6.18;;;5.57;;
34373;SDS011;20637;55.770;37.592;2022-09-13T00:05:27;7.60;;;5.90;;
34373;SDS011;20637;55.770;37.592;2022-09-13T00:07:53;6.53;;;5.28;;
34373;SDS011;20637;55.770;37.592;2022-09-13T00:10:20;7.05;;;5.18;;
34373;SDS011;20637;55.770;37.592;2022-09-13T00:12:46;7.38;;;5.72;;
34373;SDS011;20637;55.770;37.592;2022-09-13T00:15:13;7.30;;;5.38;;
34373;SDS011;20637;55.770;37.592;2022-09-13T00:17:39;8.38;;;5.75;;
34373;SDS011;20637;55.770;37.592;2022-09-13T00:20:04;8.23;;;5.68;;
34373;SDS011;20637;55.770;37.592;2022-09-13T00:22:31;6.90;;;5.68;;
34373;SDS011;20637;55.770;37.592;2022-09-13T00:24:56;7.22;;;5.43;;
34373;SDS011;20637;55.770;37.592;2022-09-13T00:27:22;7.82;;;5.82;;
34373;SDS011;20637;55.770;37.592;2022-09-13T00:29:47;8.50;;;5.65;;
34373;SDS011;20637;55.770;37.592;2022-09-13T00:32:13;6.93;;;5.80;;
34373;SDS011;20637;55.770;37.592;2022-09-13T00:34:39;7.35;;;5.70;;
34373;SDS011;20637;55.770;37.592;2022-09-13T00:37:04;9.15;;;6.00;;
34373;SDS011;20637;55.770;37.592;2022-09-13T00:39:30;7.03;;;5.38;;
34373;SDS011;20637;55.770;37.592;2022-09-13T00:41:56;7.40;;;5.68;;
34373;SDS011;20637;55.770;37.592;2022-09-13T00:47:30;7.40;;;5.60;;
34373;SDS011;20637;55.770;37.592;2022-09-13T00:53:34;7.45;;;6.65;;
34373;SDS011;20637;55.770;37.592;2022-09-13T00:55:46;7.97;;;5.93;;
34373;SDS011;20637;55.770;37.592;2022-09-13T00:58:17;9.85;;;5.78;;
34373;SDS011;20637;55.770;37.592;2022-09-13T01:00:49;11.85;;;6.60;;
34373;SDS011;20637;55.770;37.592;2022-09-13T01:03:19;7.50;;;5.88;;
34373;SDS011;20637;55.770;37.592;2022-09-13T01:05:49;7.27;;;6.20;;
34373;SDS011;20637;55.770;37.592;2022-09-13T01:08:19;6.32;;;5.47;;
34373;SDS011;20637;55.770;37.592;2022-09-13T01:10:49;9.45;;;6.00;;
34373;SDS011;20637;55.770;37.592;2022-09-13T01:13:22;8.88;;;6.15;;
34373;SDS011;20637;55.770;37.592;2022-09-13T01:15:50;7.38;;;6.10;;
34373;SDS011;20637;55.770;37.592;2022-09-13T01:18:16;8.68;;;5.95;;
34373;SDS011;20637;55.770;37.592;2022-09-13T01:23:22;7.30;;;6.60;;
34373;SDS011;20637;55.770;37.592;2022-09-13T01:31:46;6.60;;;6.00;;
34373;SDS011;20637;55.770;37.592;2022-09-13T01:34:32;6.70;;;5.40;;
34373;SDS011;20637;55.770;37.592;2022-09-13T01:46:22;6.22;;;5.63;;
34373;SDS011;20637;55.770;37.592;2022-09-13T01:51:25;7.13;;;6.32;;
34373;SDS011;20637;55.770;37.592;2022-09-13T01:56:39;7.65;;;5.88;;
34373;SDS011;20637;55.770;37.592;2022-09-13T02:02:21;7.30;;;6.60;;
34373;SDS011;20637;55.770;37.592;2022-09-13T02:04:59;8.32;;;6.07;;
34373;SDS011;20637;55.770;37.592;2022-09-13T02:07:40;7.55;;;6.15;;
34373;SDS011;20637;55.770;37.592;2022-09-13T02:10:11;6.55;;;5.38;;
34373;SDS011;20637;55.770;37.592;2022-09-13T02:12:43;10.07;;;6.38;;
34373;SDS011;20637;55.770;37.592;2022-09-13T02:15:16;7.22;;;6.15;;
34373;SDS011;20637;55.770;37.592;2022-09-13T02:18:08;7.35;;;6.00;;
34373;SDS011;20637;55.770;37.592;2022-09-13T02:20:39;7.82;;;6.30;;
34373;SDS011;20637;55.770;37.592;2022-09-13T02:23:43;7.68;;;6.65;;
34373;SDS011;20637;55.770;37.592;2022-09-13T02:26:06;8.23;;;6.43;;
34373;SDS011;20637;55.770;37.592;2022-09-13T02:28:37;6.75;;;6.10;;
34373;SDS011;20637;55.770;37.592;2022-09-13T02:31:09;6.63;;;5.88;;
34373;SDS011;20637;55.770;37.592;2022-09-13T02:36:25;8.23;;;6.28;;
34373;SDS011;20637;55.770;37.592;2022-09-13T02:38:58;7.72;;;6.18;;
34373;SDS011;20637;55.770;37.592;2022-09-13T02:41:41;7.95;;;6.05;;
34373;SDS011;20637;55.770;37.592;2022-09-13T02:55:19;9.98;;;6.93;;
34373;SDS011;20637;55.770;37.592;2022-09-13T03:00:23;10.57;;;7.50;;
34373;SDS011;20637;55.770;37.592;2022-09-13T03:02:49;10.20;;;7.28;;
34373;SDS011;20637;55.770;37.592;2022-09-13T03:05:17;8.05;;;6.90;;
34373;SDS011;20637;55.770;37.592;2022-09-13T03:07:42;8.73;;;7.32;;
34373;SDS011;20637;55.770;37.592;2022-09-13T03:10:08;7.28;;;6.38;;
34373;SDS011;20637;55.770;37.592;2022-09-13T03:15:12;9.48;;;6.68;;
34373;SDS011;20637;55.770;37.592;2022-09-13T03:25:45;7.15;;;6.45;;
34373;SDS011;20637;55.770;37.592;2022-09-13T03:31:38;8.38;;;7.47;;
34373;SDS011;20637;55.770;37.592;2022-09-13T03:34:15;10.27;;;7.80;;
34373;SDS011;20637;55.770;37.592;2022-09-13T03:36:56;7.90;;;7.10;;
34373;SDS011;20637;55.770;37.592;2022-09-13T03:39:39;7.35;;;6.60;;
34373;SDS011;20637;55.770;37.592;2022-09-13T03:42:28;9.35;;;6.65;;
34373;SDS011;20637;55.770;37.592;2022-09-13T03:45:16;8.50;;;6.13;;
34373;SDS011;20637;55.770;37.592;2022-09-13T03:47:45;7.88;;;6.95;;
34373;SDS011;20637;55.770;37.592;2022-09-13T03:50:19;9.50;;;7.35;;
34373;SDS011;20637;55.770;37.592;2022-09-13T03:52:46;7.00;;;6.30;;
34373;SDS011;20637;55.770;37.592;2022-09-13T03:55:17;7.72;;;6.45;;
34373;SDS011;20637;55.770;37.592;2022-09-13T03:57:45;8.88;;;6.75;;
34373;SDS011;20637;55.770;37.592;2022-09-13T04:00:12;9.45;;;6.40;;
34373;SDS011;20637;55.770;37.592;2022-09-13T04:02:39;8.02;;;6.63;;
34373;SDS011;20637;55.770;37.592;2022-09-13T04:05:05;7.07;;;6.38;;
34373;SDS011;20637;55.770;37.592;2022-09-13T04:07:31;9.23;;;6.55;;
34373;SDS011;20637;55.770;37.592;2022-09-13T04:09:57;8.43;;;6.90;;
34373;SDS011;20637;55.770;37.592;2022-09-13T04:12:23;8.35;;;6.78;;
34373;SDS011;20637;55.770;37.592;2022-09-13T04:14:49;7.90;;;7.10;;
34373;SDS011;20637;55.770;37.592;2022-09-13T04:17:15;8.45;;;7.40;;
34373;SDS011;20637;55.770;37.592;2022-09-13T04:19:40;8.38;;;7.47;;
34373;SDS011;20637;55.770;37.592;2022-09-13T04:22:06;9.30;;;7.63;;
34373;SDS011;20637;55.770;37.592;2022-09-13T04:24:32;13.82;;;7.90;;
34373;SDS011;20637;55.770;37.592;2022-09-13T04:26:57;9.45;;;7.55;;
34373;SDS011;20637;55.770;37.592;2022-09-13T04:29:24;7.30;;;6.60;;
34373;SDS011;20637;55.770;37.592;2022-09-13T04:31:51;8.48;;;7.68;;
34373;SDS011;20637;55.770;37.592;2022-09-13T04:34:17;10.48;;;7.07;;
34373;SDS011;20637;55.770;37.592;2022-09-13T04:36:44;10.27;;;7.68;;
34373;SDS011;20637;55.770;37.592;2022-09-13T04:39:11;9.35;;;7.28;;
34373;SDS011;20637;55.770;37.592;2022-09-13T04:41:40;10.30;;;7.68;;
34373;SDS011;20637;55.770;37.592;2022-09-13T04:44:09;9.20;;;7.68;;
34373;SDS011;20637;55.770;37.592;2022-09-13T04:46:34;9.82;;;8.27;;
34373;SDS011;20637;55.770;37.592;2022-09-13T04:49:00;10.63;;;7.95;;
34373;SDS011;20637;55.770;37.592;2022-09-13T04:51:25;12.52;;;8.82;;
34373;SDS011;20637;55.770;37.592;2022-09-13T04:53:52;13.45;;;9.52;;
34373;SDS011;20637;55.770;37.592;2022-09-13T04:56:18;10.68;;;9.05;;
34373;SDS011;20637;55.770;37.592;2022-09-13T04:58:44;9.02;;;7.80;;
34373;SDS011;20637;55.770;37.592;2022-09-13T05:01:10;11.50;;;7.90;;
34373;SDS011;20637;55.770;37.592;2022-09-13T05:03:36;9.55;;;8.25;;
34373;SDS011;20637;55.770;37.592;2022-09-13T05:06:06;9.85;;;8.05;;
34373;SDS011;20637;55.770;37.592;2022-09-13T05:08:34;10.32;;;7.63;;
34373;SDS011;20637;55.770;37.592;2022-09-13T05:11:01;12.05;;;8.77;;
34373;SDS011;20637;55.770;37.592;2022-09-13T05:13:27;10.75;;;8.32;;
34373;SDS011;20637;55.770;37.592;2022-09-13T05:15:59;10.48;;;8.25;;
34373;SDS011;20637;55.770;37.592;2022-09-13T05:18:28;10.63;;;7.90;;
34373;SDS011;20637;55.770;37.592;2022-09-13T05:20:55;10.55;;;8.40;;
34373;SDS011;20637;55.770;37.592;2022-09-13T05:23:24;9.77;;;7.55;;
34373;SDS011;20637;55.770;37.592;2022-09-13T05:25:55;10.55;;;7.72;;
34373;SDS011;20637;55.770;37.592;2022-09-13T05:28:23;11.65;;;7.55;;
34373;SDS011;20637;55.770;37.592;2022-09-13T05:33:25;9.13;;;8.10;;
34373;SDS011;20637;55.770;37.592;2022-09-13T05:35:52;11.63;;;9.25;;
34373;SDS011;20637;55.770;37.592;2022-09-13T05:38:18;10.57;;;7.97;;
34373;SDS011;20637;55.770;37.592;2022-09-13T05:40:44;10.23;;;8.55;;
34373;SDS011;20637;55.770;37.592;2022-09-13T05:43:09;10.63;;;8.15;;
34373;SDS011;20637;55.770;37.592;2022-09-13T05:45:35;14.43;;;9.68;;
34373;SDS011;20637;55.770;37.592;2022-09-13T05:48:01;11.40;;;8.38;;
34373;SDS011;20637;55.770;37.592;2022-09-13T05:50:26;11.27;;;8.23;;
34373;SDS011;20637;55.770;37.592;2022-09-13T05:52:52;11.98;;;10.32;;
34373;SDS011;20637;55.770;37.592;2022-09-13T05:55:21;11.73;;;8.30;;
34373;SDS011;20637;55.770;37.592;2022-09-13T05:57:48;11.43;;;8.50;;
34373;SDS011;20637;55.770;37.592;2022-09-13T06:00:14;11.07;;;8.45;;
34373;SDS011;20637;55.770;37.592;2022-09-13T06:02:40;9.25;;;7.72;;
34373;SDS011;20637;55.770;37.592;2022-09-13T06:05:07;8.57;;;7.75;;
34373;SDS011;20637;55.770;37.592;2022-09-13T06:07:35;11.98;;;9.00;;
34373;SDS011;20637;55.770;37.592;2022-09-13T06:10:02;10.52;;;8.55;;
34373;SDS011;20637;55.770;37.592;2022-09-13T06:12:29;12.93;;;8.95;;
34373;SDS011;20637;55.770;37.592;2022-09-13T06:14:55;11.07;;;8.23;;
34373;SDS011;20637;55.770;37.592;2022-09-13T06:17:20;8.77;;;7.70;;
34373;SDS011;20637;55.770;37.592;2022-09-13T06:19:46;13.77;;;8.90;;
34373;SDS011;20637;55.770;37.592;2022-09-13T06:22:11;11.85;;;8.85;;
34373;SDS011;20637;55.770;37.592;2022-09-13T06:24:37;11.43;;;8.15;;
34373;SDS011;20637;55.770;37.592;2022-09-13T06:27:03;11.23;;;8.70;;
34373;SDS011;20637;55.770;37.592;2022-09-13T06:29:28;9.45;;;7.72;;
34373;SDS011;20637;55.770;37.592;2022-09-13T06:31:54;9.65;;;7.72;;
34373;SDS011;20637;55.770;37.592;2022-09-13T06:34:20;10.00;;;8.50;;
34373;SDS011;20637;55.770;37.592;2022-09-13T06:36:46;11.10;;;7.82;;
34373;SDS011;20637;55.770;37.592;2022-09-13T06:39:11;9.38;;;7.40;;
34373;SDS011;20637;55.770;37.592;2022-09-13T06:41:37;12.15;;;7.82;;
34373;SDS011;20637;55.770;37.592;2022-09-13T06:44:03;8.70;;;7.47;;
34373;SDS011;20637;55.770;37.592;2022-09-13T06:46:30;10.02;;;8.23;;
34373;SDS011;20637;55.770;37.592;2022-09-13T06:48:57;13.63;;;9.63;;
34373;SDS011;20637;55.770;37.592;2022-09-13T06:51:28;9.57;;;8.15;;
34373;SDS011;20637;55.770;37.592;2022-09-13T06:53:54;12.20;;;8.63;;
34373;SDS011;20637;55.770;37.592;2022-09-13T06:56:22;13.25;;;8.80;;
34373;SDS011;20637;55.770;37.592;2022-09-13T06:58:49;11.35;;;8.50;;
34373;SDS011;20637;55.770;37.592;2022-09-13T07:01:21;14.30;;;9.55;;
34373;SDS011;20637;55.770;37.592;2022-09-13T07:03:52;14.88;;;9.13;;
34373;SDS011;20637;55.770;37.592;2022-09-13T07:06:20;11.50;;;9.00;;
34373;SDS011;20637;55.770;37.592;2022-09-13T07:08:47;13.88;;;8.82;;
34373;SDS011;20637;55.770;37.592;2022-09-13T07:11:15;14.68;;;8.50;;
34373;SDS011;20637;55.770;37.592;2022-09-13T07:13:46;13.30;;;9.52;;
34373;SDS011;20637;55.770;37.592;2022-09-13T07:16:13;13.00;;;7.75;;
34373;SDS011;20637;55.770;37.592;2022-09-13T07:18:39;13.90;;;8.63;;
34373;SDS011;20637;55.770;37.592;2022-09-13T07:21:06;12.93;;;7.63;;
34373;SDS011;20637;55.770;37.592;2022-09-13T07:23:33;12.57;;;8.85;;
34373;SDS011;20637;55.770;37.592;2022-09-13T07:26:00;12.93;;;7.80;;
34373;SDS011;20637;55.770;37.592;2022-09-13T07:28:29;14.77;;;8.68;;
34373;SDS011;20637;55.770;37.592;2022-09-13T07:30:56;12.05;;;8.32;;
34373;SDS011;20637;55.770;37.592;2022-09-13T07:33:28;16.40;;;9.30;;
34373;SDS011;20637;55.770;37.592;2022-09-13T07:35:54;9.30;;;8.18;;
34373;SDS011;20637;55.770;37.592;2022-09-13T07:38:21;9.23;;;7.60;;
34373;SDS011;20637;55.770;37.592;2022-09-13T07:40:54;11.88;;;6.97;;
34373;SDS011;20637;55.770;37.592;2022-09-13T07:43:22;13.05;;;7.20;;
34373;SDS011;20637;55.770;37.592;2022-09-13T07:45:55;11.50;;;7.20;;
34373;SDS011;20637;55.770;37.592;2022-09-13T07:48:22;11.65;;;7.65;;
34373;SDS011;20637;55.770;37.592;2022-09-13T07:51:01;11.23;;;7.65;;
34373;SDS011;20637;55.770;37.592;2022-09-13T07:53:48;14.15;;;7.60;;
34373;SDS011;20637;55.770;37.592;2022-09-13T07:56:16;11.20;;;6.22;;
34373;SDS011;20637;55.770;37.592;2022-09-13T07:58:46;11.82;;;7.28;;
34373;SDS011;20637;55.770;37.592;2022-09-13T08:01:17;9.15;;;7.10;;
34373;SDS011;20637;55.770;37.592;2022-09-13T08:03:49;10.63;;;6.75;;
34373;SDS011;20637;55.770;37.592;2022-09-13T08:06:19;8.38;;;6.70;;
34373;SDS011;20637;55.770;37.592;2022-09-13T08:08:45;11.05;;;7.20;;
34373;SDS011;20637;55.770;37.592;2022-09-13T08:11:14;13.80;;;7.10;;
34373;SDS011;20637;55.770;37.592;2022-09-13T08:13:42;13.63;;;7.50;;
34373;SDS011;20637;55.770;37.592;2022-09-13T08:16:09;12.93;;;7.72;;
34373;SDS011;20637;55.770;37.592;2022-09-13T08:18:34;9.07;;;6.90;;
34373;SDS011;20637;55.770;37.592;2022-09-13T08:21:01;10.02;;;6.95;;
34373;SDS011;20637;55.770;37.592;2022-09-13T08:23:26;10.98;;;6.85;;
34373;SDS011;20637;55.770;37.592;2022-09-13T08:25:52;10.18;;;6.40;;
34373;SDS011;20637;55.770;37.592;2022-09-13T08:28:19;8.07;;;5.88;;
34373;SDS011;20637;55.770;37.592;2022-09-13T08:30:46;8.68;;;5.75;;
34373;SDS011;20637;55.770;37.592;2022-09-13T08:33:12;7.75;;;5.13;;
34373;SDS011;20637;55.770;37.592;2022-09-13T08:35:39;6.22;;;5.25;;
34373;SDS011;20637;55.770;37.592;2022-09-13T08:38:05;7.40;;;4.68;;
34373;SDS011;20637;55.770;37.592;2022-09-13T08:40:32;6.18;;;4.68;;
34373;SDS011;20637;55.770;37.592;2022-09-13T08:45:36;8.02;;;5.43;;
34373;SDS011;20637;55.770;37.592;2022-09-13T08:48:03;8.07;;;5.30;;
34373;SDS011;20637;55.770;37.592;2022-09-13T08:50:36;5.32;;;4.07;;
34373;SDS011;20637;55.770;37.592;2022-09-13T08:53:05;10.07;;;5.18;;
34373;SDS011;20637;55.770;37.592;2022-09-13T09:04:00;7.03;;;4.85;;
34373;SDS011;20637;55.770;37.592;2022-09-13T09:06:46;5.70;;;3.58;;
34373;SDS011;20637;55.770;37.592;2022-09-13T09:09:15;4.30;;;3.92;;
34373;SDS011;20637;55.770;37.592;2022-09-13T09:11:47;8.23;;;4.38;;
34373;SDS011;20637;55.770;37.592;2022-09-13T09:14:31;7.30;;;3.83;;
34373;SDS011;20637;55.770;37.592;2022-09-13T09:17:16;6.60;;;3.13;;
34373;SDS011;20637;55.770;37.592;2022-09-13T09:19:51;6.20;;;3.03;;
34373;SDS011;20637;55.770;37.592;2022-09-13T09:22:28;4.43;;;3.03;;
34373;SDS011;20637;55.770;37.592;2022-09-13T09:27:23;2.42;;;2.22;;
34373;SDS011;20637;55.770;37.592;2022-09-13T09:29:50;2.00;;;1.77;;
34373;SDS011;20637;55.770;37.592;2022-09-13T09:40:43;4.88;;;2.30;;
34373;SDS011;20637;55.770;37.592;2022-09-13T09:43:31;3.35;;;2.65;;
34373;SDS011;20637;55.770;37.592;2022-09-13T09:45:58;4.10;;;2.50;;
34373;SDS011;20637;55.770;37.592;2022-09-13T09:48:28;5.25;;;2.45;;
34373;SDS011;20637;55.770;37.592;2022-09-13T09:51:01;4.18;;;2.53;;
34373;SDS011;20637;55.770;37.592;2022-09-13T09:53:33;3.67;;;2.30;;
34373;SDS011;20637;55.770;37.592;2022-09-13T09:58:48;2.60;;;2.40;;
34373;SDS011;20637;55.770;37.592;2022-09-13T10:03:49;3.65;;;2.60;;
34373;SDS011;20637;55.770;37.592;2022-09-13T10:06:22;5.65;;;2.75;;
34373;SDS011;20637;55.770;37.592;2022-09-13T10:08:56;4.57;;;2.50;;
34373;SDS011;20637;55.770;37.592;2022-09-13T10:17:04;4.85;;;3.08;;
34373;SDS011;20637;55.770;37.592;2022-09-13T10:19:36;4.10;;;3.03;;
34373;SDS011;20637;55.770;37.592;2022-09-13T10:22:09;6.95;;;3.53;;
34373;SDS011;20637;55.770;37.592;2022-09-13T10:24:39;4.57;;;3.60;;
34373;SDS011;20637;55.770;37.592;2022-09-13T10:27:15;4.78;;;2.97;;
34373;SDS011;20637;55.770;37.592;2022-09-13T10:29:47;3.38;;;2.67;;
34373;SDS011;20637;55.770;37.592;2022-09-13T10:32:16;3.70;;;2.72;;
34373;SDS011;20637;55.770;37.592;2022-09-13T10:34:44;3.97;;;2.60;;
34373;SDS011;20637;55.770;37.592;2022-09-13T10:37:12;4.65;;;2.30;;
34373;SDS011;20637;55.770;37.592;2022-09-13T10:42:28;3.50;;;2.08;;
34373;SDS011;20637;55.770;37.592;2022-09-13T10:45:03;3.33;;;2.10;;
34373;SDS011;20637;55.770;37.592;2022-09-13T10:47:44;3.72;;;2.15;;
34373;SDS011;20637;55.770;37.592;2022-09-13T10:52:48;3.45;;;2.22;;
34373;SDS011;20637;55.770;37.592;2022-09-13T10:57:45;4.28;;;2.45;;
34373;SDS011;20637;55.770;37.592;2022-09-13T11:00:14;3.97;;;2.05;;
34373;SDS011;20637;55.770;37.592;2022-09-13T11:05:23;3.85;;;2.25;;
34373;SDS011;20637;55.770;37.592;2022-09-13T11:22:18;4.05;;;2.42;;
34373;SDS011;20637;55.770;37.592;2022-09-13T11:25:08;2.03;;;1.67;;
34373;SDS011;20637;55.770;37.592;2022-09-13T11:27:49;3.78;;;2.05;;
34373;SDS011;20637;55.770;37.592;2022-09-13T11:36:33;5.05;;;2.20;;
34373;SDS011;20637;55.770;37.592;2022-09-13T11:55:34;5.22;;;2.38;;
34373;SDS011;20637;55.770;37.592;2022-09-13T11:58:16;7.60;;;2.47;;
34373;SDS011;20637;55.770;37.592;2022-09-13T12:00:49;5.65;;;2.42;;
34373;SDS011;20637;55.770;37.592;2022-09-13T12:03:22;6.82;;;2.45;;
34373;SDS011;20637;55.770;37.592;2022-09-13T12:05:57;6.32;;;2.08;;
34373;SDS011;20637;55.770;37.592;2022-09-13T12:08:55;8.50;;;2.50;;
34373;SDS011;20637;55.770;37.592;2022-09-13T12:11:29;3.33;;;1.90;;
34373;SDS011;20637;55.770;37.592;2022-09-13T12:14:10;7.30;;;1.80;;
34373;SDS011;20637;55.770;37.592;2022-09-13T12:21:46;5.68;;;2.25;;
34373;SDS011;20637;55.770;37.592;2022-09-13T12:24:17;4.47;;;2.30;;
34373;SDS011;20637;55.770;37.592;2022-09-13T12:26:57;4.67;;;2.37;;
34373;SDS011;20637;55.770;37.592;2022-09-13T12:29:28;4.50;;;2.05;;
34373;SDS011;20637;55.770;37.592;2022-09-13T12:32:03;5.53;;;2.00;;
34373;SDS011;20637;55.770;37.592;2022-09-13T12:34:38;6.03;;;2.22;;
34373;SDS011;20637;55.770;37.592;2022-09-13T12:39:53;2.95;;;1.92;;
34373;SDS011;20637;55.770;37.592;2022-09-13T12:42:25;2.58;;;2.17;;
34373;SDS011;20637;55.770;37.592;2022-09-13T12:53:19;3.83;;;1.70;;
34373;SDS011;20637;55.770;37.592;2022-09-13T12:56:03;3.15;;;1.98;;
34373;SDS011;20637;55.770;37.592;2022-09-13T13:01:46;2.63;;;2.20;;
34373;SDS011;20637;55.770;37.592;2022-09-13T13:04:15;3.60;;;1.95;;
34373;SDS011;20637;55.770;37.592;2022-09-13T13:06:49;2.50;;;2.17;;
34373;SDS011;20637;55.770;37.592;2022-09-13T13:11:47;3.58;;;2.22;;
34373;SDS011;20637;55.770;37.592;2022-09-13T13:23:24;3.17;;;1.73;;
34373;SDS011;20637;55.770;37.592;2022-09-13T13:25:55;3.33;;;2.05;;
34373;SDS011;20637;55.770;37.592;2022-09-13T13:31:08;8.10;;;1.90;;
34373;SDS011;20637;55.770;37.592;2022-09-13T13:33:47;6.80;;;2.38;;
34373;SDS011;20637;55.770;37.592;2022-09-13T13:38:59;5.55;;;2.30;;
34373;SDS011;20637;55.770;37.592;2022-09-13T13:43:58;3.88;;;2.30;;
34373;SDS011;20637;55.770;37.592;2022-09-13T13:48:51;3.22;;;2.00;;
34373;SDS011;20637;55.770;37.592;2022-09-13T13:51:22;2.92;;;1.60;;
34373;SDS011;20637;55.770;37.592;2022-09-13T13:57:04;3.78;;;2.05;;
34373;SDS011;20637;55.770;37.592;2022-09-13T13:59:25;5.47;;;2.00;;
34373;SDS011;20637;55.770;37.592;2022-09-13T14:01:56;3.78;;;1.55;;
34373;SDS011;20637;55.770;37.592;2022-09-13T14:07:43;3.55;;;2.20;;
34373;SDS011;20637;55.770;37.592;2022-09-13T14:18:19;3.50;;;1.85;;
34373;SDS011;20637;55.770;37.592;2022-09-13T14:21:02;3.83;;;2.03;;
34373;SDS011;20637;55.770;37.592;2022-09-13T14:23:30;3.25;;;2.08;;
34373;SDS011;20637;55.770;37.592;2022-09-13T14:25:56;4.07;;;2.30;;
34373;SDS011;20637;55.770;37.592;2022-09-13T14:28:24;5.05;;;2.53;;
34373;SDS011;20637;55.770;37.592;2022-09-13T14:30:54;8.15;;;2.40;;
34373;SDS011;20637;55.770;37.592;2022-09-13T14:33:26;5.32;;;2.30;;
34373;SDS011;20637;55.770;37.592;2022-09-13T14:36:00;5.97;;;3.08;;
34373;SDS011;20637;55.770;37.592;2022-09-13T14:38:31;3.70;;;2.35;;
34373;SDS011;20637;55.770;37.592;2022-09-13T14:41:02;3.75;;;2.20;;
34373;SDS011;20637;55.770;37.592;2022-09-13T14:43:39;1.95;;;1.70;;
34373;SDS011;20637;55.770;37.592;2022-09-13T14:51:28;4.28;;;2.20;;
34373;SDS011;20637;55.770;37.592;2022-09-13T14:53:58;3.60;;;2.20;;
34373;SDS011;20637;55.770;37.592;2022-09-13T14:56:33;4.22;;;2.03;;
34373;SDS011;20637;55.770;37.592;2022-09-13T14:59:00;3.50;;;2.38;;
34373;SDS011;20637;55.770;37.592;2022-09-13T15:01:33;4.95;;;2.42;;
34373;SDS011;20637;55.770;37.592;2022-09-13T15:04:00;4.05;;;2.60;;
34373;SDS011;20637;55.770;37.592;2022-09-13T15:06:29;5.65;;;2.97;;
34373;SDS011;20637;55.770;37.592;2022-09-13T15:11:35;5.65;;;2.60;;
34373;SDS011;20637;55.770;37.592;2022-09-13T15:16:53;6.63;;;2.28;;
34373;SDS011;20637;55.770;37.592;2022-09-13T15:22:08;4.03;;;2.40;;
34373;SDS011;20637;55.770;37.592;2022-09-13T15:24:36;4.43;;;2.78;;
34373;SDS011;20637;55.770;37.592;2022-09-13T15:27:04;4.85;;;3.08;;
34373;SDS011;20637;55.770;37.592;2022-09-13T15:29:32;3.75;;;2.88;;
34373;SDS011;20637;55.770;37.592;2022-09-13T15:32:00;6.05;;;3.08;;
34373;SDS011;20637;55.770;37.592;2022-09-13T15:34:26;3.78;;;2.67;;
34373;SDS011;20637;55.770;37.592;2022-09-13T15:39:24;3.17;;;2.35;;
34373;SDS011;20637;55.770;37.592;2022-09-13T15:41:54;3.45;;;3.00;;
34373;SDS011;20637;55.770;37.592;2022-09-13T15:44:25;6.40;;;3.15;;
34373;SDS011;20637;55.770;37.592;2022-09-13T15:46:53;4.72;;;2.55;;
34373;SDS011;20637;55.770;37.592;2022-09-13T15:49:29;3.45;;;2.47;;
34373;SDS011;20637;55.770;37.592;2022-09-13T15:51:56;5.50;;;2.75;;
34373;SDS011;20637;55.770;37.592;2022-09-13T15:54:30;4.22;;;2.80;;
34373;SDS011;20637;55.770;37.592;2022-09-13T15:57:05;5.07;;;2.83;;
34373;SDS011;20637;55.770;37.592;2022-09-13T15:59:41;4.18;;;3.35;;
34373;SDS011;20637;55.770;37.592;2022-09-13T16:02:21;3.47;;;2.83;;
34373;SDS011;20637;55.770;37.592;2022-09-13T16:04:55;5.72;;;2.75;;
34373;SDS011;20637;55.770;37.592;2022-09-13T16:07:22;3.78;;;3.20;;
34373;SDS011;20637;55.770;37.592;2022-09-13T16:09:48;5.82;;;2.70;;
34373;SDS011;20637;55.770;37.592;2022-09-13T16:12:14;5.13;;;2.65;;
34373;SDS011;20637;55.770;37.592;2022-09-13T16:14:40;6.43;;;3.47;;
34373;SDS011;20637;55.770;37.592;2022-09-13T16:17:15;5.80;;;3.42;;
34373;SDS011;20637;55.770;37.592;2022-09-13T16:19:45;6.43;;;3.00;;
34373;SDS011;20637;55.770;37.592;2022-09-13T16:22:11;4.93;;;3.00;;
34373;SDS011;20637;55.770;37.592;2022-09-13T16:24:37;4.63;;;2.85;;
34373;SDS011;20637;55.770;37.592;2022-09-13T16:27:02;5.60;;;2.90;;
34373;SDS011;20637;55.770;37.592;2022-09-13T16:29:28;3.72;;;3.30;;
34373;SDS011;20637;55.770;37.592;2022-09-13T16:31:54;5.85;;;3.25;;
34373;SDS011;20637;55.770;37.592;2022-09-13T16:34:22;5.15;;;3.40;;
34373;SDS011;20637;55.770;37.592;2022-09-13T16:36:48;4.35;;;3.05;;
34373;SDS011;20637;55.770;37.592;2022-09-13T16:39:13;5.60;;;2.97;;
34373;SDS011;20637;55.770;37.592;2022-09-13T16:41:39;3.60;;;2.95;;
34373;SDS011;20637;55.770;37.592;2022-09-13T16:44:05;3.90;;;2.80;;
34373;SDS011;20637;55.770;37.592;2022-09-13T16:46:31;3.65;;;3.35;;
34373;SDS011;20637;55.770;37.592;2022-09-13T16:48:57;5.40;;;3.28;;
34373;SDS011;20637;55.770;37.592;2022-09-13T16:51:23;6.03;;;3.33;;
34373;SDS011;20637;55.770;37.592;2022-09-13T16:53:50;6.93;;;3.83;;
34373;SDS011;20637;55.770;37.592;2022-09-13T16:56:18;5.63;;;3.38;;
34373;SDS011;20637;55.770;37.592;2022-09-13T16:58:45;4.32;;;3.55;;
34373;SDS011;20637;55.770;37.592;2022-09-13T17:01:13;4.60;;;3.80;;
34373;SDS011;20637;55.770;37.592;2022-09-13T17:03:40;5.03;;;3.50;;
34373;SDS011;20637;55.770;37.592;2022-09-13T17:06:08;6.65;;;3.10;;
34373;SDS011;20637;55.770;37.592;2022-09-13T17:08:36;5.40;;;3.60;;
34373;SDS011;20637;55.770;37.592;2022-09-13T17:11:04;7.03;;;3.50;;
34373;SDS011;20637;55.770;37.592;2022-09-13T17:13:31;5.45;;;3.63;;
34373;SDS011;20637;55.770;37.592;2022-09-13T17:15:57;6.20;;;3.67;;
34373;SDS011;20637;55.770;37.592;2022-09-13T17:18:23;7.00;;;3.97;;
34373;SDS011;20637;55.770;37.592;2022-09-13T17:20:49;4.70;;;3.50;;
34373;SDS011;20637;55.770;37.592;2022-09-13T17:23:15;3.50;;;3.15;;
34373;SDS011;20637;55.770;37.592;2022-09-13T17:25:45;4.13;;;3.42;;
34373;SDS011;20637;55.770;37.592;2022-09-13T17:28:12;3.70;;;3.35;;
34373;SDS011;20637;55.770;37.592;2022-09-13T17:30:39;3.20;;;2.63;;
34373;SDS011;20637;55.770;37.592;2022-09-13T17:33:06;5.82;;;3.08;;
34373;SDS011;20637;55.770;37.592;2022-09-13T17:35:33;4.03;;;3.55;;
34373;SDS011;20637;55.770;37.592;2022-09-13T17:37:59;5.97;;;3.38;;
34373;SDS011;20637;55.770;37.592;2022-09-13T17:40:26;4.15;;;3.17;;
34373;SDS011;20637;55.770;37.592;2022-09-13T17:42:53;5.55;;;3.40;;
34373;SDS011;20637;55.770;37.592;2022-09-13T17:45:20;4.55;;;3.28;;
34373;SDS011;20637;55.770;37.592;2022-09-13T17:47:46;3.63;;;3.33;;
34373;SDS011;20637;55.770;37.592;2022-09-13T17:50:12;5.45;;;3.75;;
34373;SDS011;20637;55.770;37.592;2022-09-13T17:52:38;4.60;;;3.60;;
34373;SDS011;20637;55.770;37.592;2022-09-13T17:55:03;4.38;;;3.40;;
34373;SDS011;20637;55.770;37.592;2022-09-13T17:57:29;4.78;;;3.97;;
34373;SDS011;20637;55.770;37.592;2022-09-13T17:59:55;6.07;;;3.80;;
34373;SDS011;20637;55.770;37.592;2022-09-13T18:02:21;4.38;;;3.97;;
34373;SDS011;20637;55.770;37.592;2022-09-13T18:04:50;3.80;;;3.47;;
34373;SDS011;20637;55.770;37.592;2022-09-13T18:07:16;4.55;;;3.55;;
34373;SDS011;20637;55.770;37.592;2022-09-13T18:09:42;3.88;;;3.58;;
34373;SDS011;20637;55.770;37.592;2022-09-13T18:12:08;4.20;;;3.80;;
34373;SDS011;20637;55.770;37.592;2022-09-13T18:14:34;4.22;;;3.60;;
34373;SDS011;20637;55.770;37.592;2022-09-13T18:16:59;4.25;;;3.60;;
34373;SDS011;20637;55.770;37.592;2022-09-13T18:19:25;5.82;;;3.80;;
34373;SDS011;20637;55.770;37.592;2022-09-13T18:21:52;6.38;;;3.70;;